createdAt,value
2022-12-06T00:01:56.832Z,4.02
2022-12-06T00:04:23.140Z,4.03
2022-12-06T00:06:53.289Z,4.01
2022-12-06T00:09:25.361Z,3.98
2022-12-06T00:11:52.476Z,3.92
2022-12-06T00:14:19.459Z,3.94
2022-12-06T00:16:46.329Z,4.00
2022-12-06T00:19:14.860Z,4.03
2022-12-06T00:21:41.341Z,4.08
2022-12-06T00:24:16.872Z,4.06
2022-12-06T00:26:45.252Z,4.06
2022-12-06T00:29:14.031Z,4.09
2022-12-06T00:31:40.437Z,3.97
2022-12-06T00:34:06.819Z,3.95
2022-12-06T00:36:36.181Z,3.90
2022-12-06T00:39:05.823Z,3.82
2022-12-06T00:41:32.178Z,3.86
2022-12-06T00:43:58.564Z,3.81
2022-12-06T00:46:28.655Z,3.77
2022-12-06T00:48:56.913Z,3.77
2022-12-06T00:51:24.613Z,3.88
2022-12-06T00:53:51.272Z,3.99
2022-12-06T00:56:18.755Z,4.04
2022-12-06T00:58:45.280Z,4.09
2022-12-06T01:01:17.742Z,4.07
2022-12-06T01:03:45.351Z,4.06
2022-12-06T01:06:14.643Z,4.07
2022-12-06T01:08:41.856Z,3.99
2022-12-06T01:11:08.648Z,3.92
2022-12-06T01:13:35.615Z,3.92
2022-12-06T01:16:11.048Z,3.84
2022-12-06T01:18:38.587Z,3.86
2022-12-06T01:21:11.033Z,3.85
2022-12-06T01:23:37.357Z,3.87
2022-12-06T01:26:05.444Z,3.89
2022-12-06T01:28:32.307Z,3.84
2022-12-06T01:30:58.687Z,3.83
2022-12-06T01:33:25.099Z,3.83
2022-12-06T01:35:51.372Z,3.91
2022-12-06T01:38:17.667Z,3.77
2022-12-06T01:40:47.109Z,3.75
2022-12-06T01:43:49.735Z,3.74
2022-12-06T01:46:28.057Z,3.74
2022-12-06T01:49:11.846Z,3.73
2022-12-06T01:51:40.865Z,3.80
2022-12-06T01:54:11.293Z,3.78
2022-12-06T01:56:38.742Z,3.76
2022-12-06T01:59:06.260Z,3.79
2022-12-06T02:01:34.151Z,3.68
2022-12-06T02:04:01.408Z,3.62
2022-12-06T02:06:29.992Z,3.62
2022-12-06T02:08:59.264Z,3.61
2022-12-06T02:11:28.379Z,3.60
2022-12-06T02:13:57.623Z,3.73
2022-12-06T02:16:31.617Z,3.74
2022-12-06T02:19:10.161Z,3.70
2022-12-06T02:21:48.649Z,3.65
2022-12-06T02:24:40.010Z,3.62
2022-12-06T02:27:19.753Z,3.55
2022-12-06T02:30:08.558Z,3.61
2022-12-06T02:32:53.177Z,3.64
2022-12-06T02:35:47.428Z,3.67
2022-12-06T02:38:31.770Z,3.63
2022-12-06T02:41:02.201Z,3.57
2022-12-06T02:43:37.087Z,3.61
2022-12-06T02:46:05.702Z,3.67
2022-12-06T02:48:34.014Z,3.60
2022-12-06T02:51:05.937Z,3.56
2022-12-06T02:53:37.110Z,3.52
2022-12-06T02:56:03.964Z,3.46
2022-12-06T02:58:35.706Z,3.43
2022-12-06T03:01:14.158Z,3.55
2022-12-06T03:03:59.104Z,3.40
2022-12-06T03:06:43.808Z,3.44
2022-12-06T03:09:24.718Z,3.41
2022-12-06T03:12:01.862Z,3.50
2022-12-06T03:14:38.347Z,3.43
2022-12-06T03:17:33.837Z,3.43
2022-12-06T03:20:08.177Z,3.45
2022-12-06T03:22:40.165Z,3.47
2022-12-06T03:25:09.149Z,3.44
2022-12-06T03:27:36.363Z,3.42
2022-12-06T03:30:08.238Z,3.44
2022-12-06T03:32:36.793Z,3.43
2022-12-06T03:35:08.078Z,3.46
2022-12-06T03:37:40.797Z,3.45
2022-12-06T03:40:25.658Z,3.43
2022-12-06T03:42:52.848Z,3.49
2022-12-06T03:45:22.319Z,3.47
2022-12-06T03:48:06.199Z,3.41
2022-12-06T03:50:39.613Z,3.51
2022-12-06T03:53:06.015Z,3.42
2022-12-06T03:55:32.299Z,3.37
2022-12-06T03:57:58.737Z,3.34
2022-12-06T04:00:25.062Z,3.30
2022-12-06T04:02:51.500Z,3.28
2022-12-06T04:05:18.580Z,3.31
2022-12-06T04:07:44.947Z,3.42
2022-12-06T04:10:11.553Z,3.32
2022-12-06T04:12:56.661Z,3.41
2022-12-06T04:15:23.106Z,3.46
2022-12-06T04:18:08.495Z,3.44
2022-12-06T04:20:53.985Z,3.43
2022-12-06T04:23:21.387Z,3.46
2022-12-06T04:25:47.876Z,3.35
2022-12-06T04:28:32.895Z,3.32
2022-12-06T04:31:22.032Z,3.32
2022-12-06T04:34:07.563Z,3.38
2022-12-06T04:36:52.314Z,3.38
2022-12-06T04:39:20.921Z,3.44
2022-12-06T04:42:06.672Z,3.41
2022-12-06T04:44:33.103Z,3.42
2022-12-06T04:47:00.001Z,3.49
2022-12-06T04:49:26.456Z,3.36
2022-12-06T04:51:54.050Z,3.29
2022-12-06T04:54:21.767Z,3.30
2022-12-06T04:56:48.557Z,3.24
2022-12-06T04:59:14.903Z,3.24
2022-12-06T05:01:41.214Z,3.33
2022-12-06T05:04:07.695Z,3.29
2022-12-06T05:06:34.132Z,3.28
2022-12-06T05:09:00.498Z,3.24
2022-12-06T05:11:26.843Z,3.21
2022-12-06T05:13:53.168Z,3.17
2022-12-06T05:16:19.600Z,3.14
2022-12-06T05:18:45.988Z,3.18
2022-12-06T05:21:17.948Z,3.26
2022-12-06T05:23:44.682Z,3.27
2022-12-06T05:26:13.340Z,3.29
2022-12-06T05:28:39.974Z,3.36
2022-12-06T05:31:06.578Z,3.31
2022-12-06T05:33:33.306Z,3.34
2022-12-06T05:35:59.774Z,3.31
2022-12-06T05:38:26.085Z,3.39
2022-12-06T05:40:52.438Z,3.33
2022-12-06T05:43:18.720Z,3.24
2022-12-06T05:45:45.596Z,3.21
2022-12-06T05:48:11.904Z,3.25
2022-12-06T05:50:38.230Z,3.22
2022-12-06T05:53:04.686Z,3.23
2022-12-06T05:55:30.992Z,3.22
2022-12-06T05:57:57.439Z,3.29
2022-12-06T06:00:23.885Z,3.31
2022-12-06T06:02:50.526Z,3.27
2022-12-06T06:05:17.243Z,3.28
2022-12-06T06:07:43.704Z,3.28
2022-12-06T06:10:10.825Z,3.30
2022-12-06T06:12:37.234Z,3.31
2022-12-06T06:15:07.028Z,3.42
2022-12-06T06:17:34.453Z,3.44
2022-12-06T06:20:05.355Z,3.43
2022-12-06T06:22:33.865Z,3.39
2022-12-06T06:25:01.114Z,3.36
2022-12-06T06:27:32.098Z,3.33
2022-12-06T06:29:58.712Z,3.36
2022-12-06T06:32:25.443Z,3.42
2022-12-06T06:34:51.728Z,3.43
2022-12-06T06:37:18.173Z,3.40
2022-12-06T06:39:44.478Z,3.40
2022-12-06T06:42:10.783Z,3.44
2022-12-06T06:44:37.086Z,3.53
2022-12-06T06:47:03.471Z,3.52
2022-12-06T06:49:29.801Z,3.54
2022-12-06T06:51:56.076Z,3.46
2022-12-06T06:54:23.565Z,3.47
2022-12-06T06:56:49.852Z,3.39
2022-12-06T06:59:16.189Z,3.51
2022-12-06T07:01:43.099Z,3.47
2022-12-06T07:04:09.673Z,3.45
2022-12-06T07:06:36.010Z,3.48
2022-12-06T07:09:02.294Z,3.40
2022-12-06T07:11:28.736Z,3.43
2022-12-06T07:13:55.032Z,3.40
2022-12-06T07:16:21.522Z,3.50
2022-12-06T07:18:48.102Z,3.47
2022-12-06T07:21:16.284Z,3.50
2022-12-06T07:23:42.953Z,3.49
2022-12-06T07:26:14.904Z,3.56
2022-12-06T07:28:43.371Z,3.49
2022-12-06T07:31:11.741Z,3.46
2022-12-06T07:33:38.652Z,3.50
2022-12-06T07:36:14.120Z,3.53
2022-12-06T07:38:42.954Z,3.56
2022-12-06T07:41:31.191Z,3.55
2022-12-06T07:44:17.556Z,3.59
2022-12-06T07:46:44.372Z,3.54
2022-12-06T07:49:10.904Z,3.56
2022-12-06T07:51:37.683Z,3.55
2022-12-06T07:54:04.179Z,3.64
2022-12-06T07:56:30.514Z,3.72
2022-12-06T07:58:56.805Z,3.71
2022-12-06T08:01:23.406Z,3.72
2022-12-06T08:03:50.439Z,3.86
2022-12-06T08:06:17.477Z,3.77
2022-12-06T08:08:43.804Z,3.83
2022-12-06T08:11:10.177Z,3.86
2022-12-06T08:13:36.977Z,4.03
2022-12-06T08:16:08.071Z,4.02
2022-12-06T08:18:35.696Z,4.12
2022-12-06T08:21:01.968Z,4.08
2022-12-06T08:23:33.827Z,4.08
2022-12-06T08:26:03.334Z,4.05
2022-12-06T08:28:30.973Z,4.13
2022-12-06T08:31:02.899Z,4.23
2022-12-06T08:33:32.044Z,4.25
2022-12-06T08:35:58.428Z,4.29
2022-12-06T08:38:24.802Z,4.51
2022-12-06T08:40:51.121Z,4.55
2022-12-06T08:43:17.754Z,4.57
2022-12-06T08:45:44.078Z,4.43
2022-12-06T08:48:10.364Z,4.43
2022-12-06T08:50:38.538Z,4.46
2022-12-06T08:53:04.837Z,4.50
2022-12-06T08:55:31.109Z,4.60
2022-12-06T08:57:57.423Z,4.64
2022-12-06T09:00:23.993Z,4.66
2022-12-06T09:02:50.381Z,4.74
2022-12-06T09:05:16.867Z,4.67
2022-12-06T09:07:43.311Z,4.78
2022-12-06T09:10:10.147Z,4.84
2022-12-06T09:12:36.438Z,5.08
2022-12-06T09:15:03.131Z,4.93
2022-12-06T09:17:29.413Z,4.97
2022-12-06T09:19:58.498Z,4.89
2022-12-06T09:22:27.142Z,4.95
2022-12-06T09:24:53.443Z,4.97
2022-12-06T09:27:19.888Z,4.99
2022-12-06T09:29:46.663Z,5.02
2022-12-06T09:32:12.981Z,5.09
2022-12-06T09:34:39.269Z,5.13
2022-12-06T09:37:10.533Z,5.07
2022-12-06T09:39:42.210Z,5.17
2022-12-06T09:42:42.835Z,5.18
2022-12-06T09:45:41.989Z,5.24
2022-12-06T09:48:32.083Z,5.34
2022-12-06T09:51:13.485Z,5.37
2022-12-06T09:54:01.018Z,5.33
2022-12-06T09:56:54.515Z,5.34
2022-12-06T09:59:46.325Z,5.34
2022-12-06T10:02:35.151Z,5.26
2022-12-06T10:05:04.166Z,5.38
2022-12-06T10:07:46.178Z,5.43
2022-12-06T10:10:26.082Z,5.31
2022-12-06T10:13:24.690Z,5.45
2022-12-06T10:16:04.490Z,5.54
2022-12-06T10:19:00.355Z,5.50
2022-12-06T10:21:38.072Z,5.51
2022-12-06T10:24:36.928Z,5.55
2022-12-06T10:27:10.092Z,5.55
2022-12-06T10:29:44.918Z,5.37
2022-12-06T10:32:16.813Z,5.55
2022-12-06T10:34:55.212Z,5.48
2022-12-06T10:37:57.305Z,5.71
2022-12-06T10:40:31.453Z,5.66
2022-12-06T10:43:04.962Z,5.72
2022-12-06T10:46:26.721Z,5.70
2022-12-06T10:48:52.996Z,5.86
2022-12-06T10:51:25.798Z,5.90
2022-12-06T10:53:57.393Z,6.15
2022-12-06T10:56:31.831Z,6.32
2022-12-06T10:59:25.558Z,6.31
2022-12-06T11:01:54.084Z,6.40
2022-12-06T11:04:28.683Z,6.51
2022-12-06T11:07:01.370Z,6.61
2022-12-06T11:09:39.955Z,6.65
2022-12-06T11:12:36.239Z,6.63
2022-12-06T11:15:14.679Z,6.66
2022-12-06T11:17:44.806Z,6.64
2022-12-06T11:20:34.159Z,6.77
2022-12-06T11:23:09.982Z,6.81
2022-12-06T11:25:52.649Z,6.56
2022-12-06T11:28:37.786Z,6.70
2022-12-06T11:31:19.813Z,6.59
2022-12-06T11:33:46.388Z,6.35
2022-12-06T11:36:12.765Z,6.28
2022-12-06T11:38:43.779Z,6.28
2022-12-06T11:41:26.406Z,6.27
2022-12-06T11:43:54.597Z,6.35
2022-12-06T11:46:22.958Z,6.35
2022-12-06T11:48:49.904Z,6.21
2022-12-06T11:51:23.064Z,6.26
2022-12-06T11:54:03.599Z,6.15
2022-12-06T11:56:34.445Z,6.05
2022-12-06T11:59:06.822Z,6.04
2022-12-06T12:01:39.151Z,6.15
2022-12-06T12:04:38.186Z,6.28
2022-12-06T12:07:11.155Z,6.54
2022-12-06T12:10:00.570Z,6.60
2022-12-06T12:13:07.479Z,6.77
2022-12-06T12:15:35.706Z,6.86
2022-12-06T12:18:03.475Z,6.87
2022-12-06T12:20:44.437Z,6.94
2022-12-06T12:23:25.591Z,6.74
2022-12-06T12:26:10.945Z,6.60
2022-12-06T12:28:40.792Z,6.45
2022-12-06T12:31:15.976Z,6.56
2022-12-06T12:33:42.322Z,6.66
2022-12-06T12:36:15.626Z,6.73
2022-12-06T12:38:50.774Z,6.60
2022-12-06T12:41:23.296Z,6.54
2022-12-06T12:47:19.759Z,6.33
2022-12-06T12:50:23.724Z,6.15
2022-12-06T12:52:51.274Z,6.23
2022-12-06T12:55:26.653Z,6.20
2022-12-06T12:57:56.198Z,6.20
2022-12-06T13:00:29.606Z,6.12
2022-12-06T13:03:28.494Z,6.00
2022-12-06T13:05:57.173Z,5.89
2022-12-06T13:08:33.161Z,5.85
2022-12-06T13:11:02.411Z,5.98
2022-12-06T13:13:42.737Z,5.82
2022-12-06T13:16:15.004Z,5.88
2022-12-06T13:18:46.153Z,5.82
2022-12-06T13:21:22.261Z,5.81
2022-12-06T13:24:07.498Z,5.78
2022-12-06T13:26:39.616Z,5.86
2022-12-06T13:29:29.866Z,5.79
2022-12-06T13:31:59.158Z,5.64
2022-12-06T13:34:37.571Z,5.78
2022-12-06T13:37:25.444Z,5.68
2022-12-06T13:39:51.843Z,5.61
2022-12-06T13:42:43.921Z,5.53
2022-12-06T13:45:46.321Z,5.62
2022-12-06T13:48:24.805Z,5.69
2022-12-06T13:51:12.273Z,5.62
2022-12-06T13:54:03.723Z,5.58
2022-12-06T13:56:32.954Z,5.68
2022-12-06T13:59:01.666Z,5.64
2022-12-06T14:01:50.660Z,5.64
2022-12-06T14:06:53.576Z,5.78
2022-12-06T14:09:20.793Z,5.69
2022-12-06T14:11:47.251Z,5.62
2022-12-06T14:14:24.971Z,5.64
2022-12-06T14:17:01.966Z,5.56
2022-12-06T14:19:28.238Z,5.49
2022-12-06T14:21:54.875Z,5.44
2022-12-06T14:24:37.016Z,5.42
2022-12-06T14:27:23.451Z,5.42
2022-12-06T14:30:14.548Z,5.41
2022-12-06T14:32:44.214Z,5.37
2022-12-06T14:35:15.533Z,5.35
2022-12-06T14:38:01.489Z,5.34
2022-12-06T14:40:46.072Z,5.43
2022-12-06T14:43:17.930Z,5.33
2022-12-06T14:45:45.375Z,5.23
2022-12-06T14:48:13.021Z,5.29
2022-12-06T14:50:49.631Z,5.16
2022-12-06T14:53:29.921Z,5.12
2022-12-06T14:55:59.576Z,5.12
2022-12-06T14:58:30.065Z,5.06
2022-12-06T15:00:59.976Z,5.01
2022-12-06T15:03:31.969Z,4.91
2022-12-06T15:06:13.073Z,4.86
2022-12-06T15:08:49.145Z,4.80
2022-12-06T15:11:38.162Z,4.78
2022-12-06T15:14:25.326Z,4.89
2022-12-06T15:17:17.104Z,4.87
2022-12-06T15:19:48.712Z,4.82
2022-12-06T15:22:25.316Z,4.81
2022-12-06T15:24:55.102Z,4.78
2022-12-06T15:27:23.151Z,4.76
2022-12-06T15:29:50.123Z,4.77
2022-12-06T15:32:19.401Z,4.75
2022-12-06T15:34:46.390Z,4.75
2022-12-06T15:37:38.323Z,4.78
2022-12-06T15:40:02.158Z,4.90
2022-12-06T15:42:28.684Z,4.81
2022-12-06T15:44:55.265Z,4.79
2022-12-06T15:47:21.693Z,4.86
2022-12-06T15:49:50.855Z,4.85
2022-12-06T15:52:21.783Z,4.78
2022-12-06T15:54:48.085Z,4.73
2022-12-06T15:57:14.853Z,4.69
2022-12-06T15:59:41.239Z,4.68
2022-12-06T16:02:16.224Z,4.71
2022-12-06T16:04:43.014Z,4.90
2022-12-06T16:07:09.302Z,4.85
2022-12-06T16:09:35.606Z,4.78
2022-12-06T16:12:01.931Z,4.75
2022-12-06T16:14:28.250Z,4.65
2022-12-06T16:16:54.633Z,4.63
2022-12-06T16:19:20.982Z,4.57
2022-12-06T16:21:54.499Z,4.54
2022-12-06T16:24:21.381Z,4.52
2022-12-06T16:26:47.867Z,4.50
2022-12-06T16:29:20.757Z,4.46
2022-12-06T16:31:47.665Z,4.40
2022-12-06T16:34:14.440Z,4.28
2022-12-06T16:36:58.290Z,4.31
2022-12-06T16:39:24.704Z,4.34
2022-12-06T16:41:51.010Z,4.27
2022-12-06T16:44:17.374Z,4.25
2022-12-06T16:46:45.451Z,4.32
2022-12-06T16:49:48.752Z,4.26
2022-12-06T16:52:04.408Z,4.23
2022-12-06T16:54:30.685Z,4.20
2022-12-06T16:56:57.010Z,4.17
2022-12-06T16:59:23.365Z,4.15
2022-12-06T17:01:52.728Z,4.15
2022-12-06T17:04:19.453Z,4.14
2022-12-06T17:06:46.843Z,4.09
2022-12-06T17:09:14.236Z,4.13
2022-12-06T17:11:59.386Z,4.09
2022-12-06T17:14:26.290Z,4.09
2022-12-06T17:16:52.876Z,4.12
2022-12-06T17:19:23.119Z,4.20
2022-12-06T17:21:51.594Z,4.14
2022-12-06T17:24:20.748Z,4.08
2022-12-06T17:26:47.166Z,4.03
2022-12-06T17:29:13.810Z,4.01
2022-12-06T17:31:40.183Z,4.25
2022-12-06T17:34:10.093Z,4.24
2022-12-06T17:36:36.363Z,4.08
2022-12-06T17:39:06.382Z,4.11
2022-12-06T17:41:52.215Z,4.03
2022-12-06T17:44:19.451Z,4.05
2022-12-06T17:46:45.775Z,4.01
2022-12-06T17:49:21.597Z,3.98
2022-12-06T17:51:48.389Z,4.00
2022-12-06T17:54:15.225Z,3.97
2022-12-06T17:56:43.904Z,3.97
2022-12-06T17:59:14.573Z,3.93
2022-12-06T18:04:28.810Z,3.96
2022-12-06T18:06:55.396Z,3.97
2022-12-06T18:09:21.781Z,4.06
2022-12-06T18:11:48.946Z,4.04
2022-12-06T18:14:15.962Z,4.01
2022-12-06T18:16:45.586Z,4.05
2022-12-06T18:19:14.931Z,3.99
2022-12-06T18:21:41.445Z,3.95
2022-12-06T18:24:21.490Z,4.08
2022-12-06T18:26:49.661Z,4.04
2022-12-06T18:29:21.824Z,4.13
2022-12-06T18:31:48.972Z,4.13
2022-12-06T18:34:15.431Z,4.04
2022-12-06T18:36:42.340Z,4.03
2022-12-06T18:39:15.279Z,4.02
2022-12-06T18:41:43.421Z,3.88
2022-12-06T18:44:10.541Z,3.88
2022-12-06T18:46:38.587Z,4.00
2022-12-06T18:49:05.102Z,3.98
2022-12-06T18:51:33.726Z,3.99
2022-12-06T18:54:02.227Z,3.92
2022-12-06T18:56:30.120Z,3.88
2022-12-06T18:59:01.444Z,3.98
2022-12-06T19:01:30.198Z,3.91
2022-12-06T19:03:59.525Z,3.89
2022-12-06T19:06:28.199Z,3.82
2022-12-06T19:08:57.713Z,3.72
2022-12-06T19:11:24.574Z,3.61
2022-12-06T19:13:58.798Z,3.49
2022-12-06T19:16:33.126Z,3.46
2022-12-06T19:19:00.845Z,3.53
2022-12-06T19:21:27.577Z,3.48
2022-12-06T19:23:57.608Z,3.46
2022-12-06T19:26:25.739Z,3.39
2022-12-06T19:28:53.177Z,3.32
2022-12-06T19:31:22.749Z,3.19
2022-12-06T19:33:50.295Z,3.09
2022-12-06T19:36:28.778Z,3.06
2022-12-06T19:39:04.385Z,3.18
2022-12-06T19:41:31.248Z,3.26
2022-12-06T19:44:17.706Z,3.41
2022-12-06T19:46:45.641Z,3.38
2022-12-06T19:49:13.611Z,3.36
2022-12-06T19:51:41.965Z,3.61
2022-12-06T19:54:10.294Z,3.68
2022-12-06T19:56:39.173Z,3.69
2022-12-06T19:59:11.386Z,3.61
2022-12-06T20:01:43.480Z,3.79
2022-12-06T20:04:14.927Z,3.88
2022-12-06T20:06:41.246Z,3.96
2022-12-06T20:09:07.717Z,3.87
2022-12-06T20:11:55.335Z,3.90
2022-12-06T20:14:21.823Z,3.90
2022-12-06T20:16:48.401Z,3.83
2022-12-06T20:19:15.918Z,3.86
2022-12-06T20:21:43.230Z,3.77
2022-12-06T20:24:11.062Z,3.70
2022-12-06T20:26:37.429Z,3.67
2022-12-06T20:29:03.999Z,3.59
2022-12-06T20:31:33.033Z,3.60
2022-12-06T20:34:01.906Z,3.48
2022-12-06T20:36:30.259Z,3.36
2022-12-06T20:38:57.310Z,3.30
2022-12-06T20:41:25.941Z,3.19
2022-12-06T20:43:52.990Z,3.02
2022-12-06T20:46:23.037Z,2.80
2022-12-06T20:48:49.474Z,2.65
2022-12-06T20:51:19.114Z,2.42
2022-12-06T20:53:49.676Z,2.29
2022-12-06T20:56:21.536Z,2.36
2022-12-06T20:58:53.550Z,2.26
2022-12-06T21:01:22.978Z,2.09
2022-12-06T21:03:51.237Z,2.05
2022-12-06T21:06:19.400Z,1.96
2022-12-06T21:08:46.639Z,1.76
2022-12-06T21:11:22.509Z,1.73
2022-12-06T21:13:51.651Z,1.56
2022-12-06T21:16:21.017Z,1.43
2022-12-06T21:18:49.297Z,1.28
2022-12-06T21:21:25.064Z,1.23
2022-12-06T21:23:51.526Z,1.08
2022-12-06T21:26:17.953Z,0.95
2022-12-06T21:28:44.250Z,1.03
2022-12-06T21:31:10.572Z,0.96
2022-12-06T21:33:36.976Z,0.83
2022-12-06T21:36:05.830Z,0.82
2022-12-06T21:38:32.612Z,0.73
2022-12-06T21:41:11.887Z,0.68
2022-12-06T21:43:39.010Z,0.62
2022-12-06T21:46:07.573Z,0.47
2022-12-06T21:48:34.218Z,0.48
2022-12-06T21:51:05.661Z,0.42
2022-12-06T21:53:32.403Z,0.35
2022-12-06T21:55:58.813Z,0.24
2022-12-06T21:58:26.043Z,0.23
2022-12-06T22:00:52.455Z,0.43
2022-12-06T22:03:22.871Z,0.34
2022-12-06T22:05:49.813Z,0.29
2022-12-06T22:08:16.176Z,0.20
2022-12-06T22:10:42.733Z,0.11
2022-12-06T22:13:09.430Z,0.02
2022-12-06T22:15:35.940Z,0.07
2022-12-06T22:18:02.445Z,0.14
2022-12-06T22:20:28.829Z,0.24
2022-12-06T22:22:55.211Z,0.17
2022-12-06T22:25:21.496Z,0.08
2022-12-06T22:27:47.825Z,0.17
2022-12-06T22:30:14.314Z,0.14
2022-12-06T22:32:42.976Z,0.15
2022-12-06T22:35:09.394Z,0.16
2022-12-06T22:37:35.652Z,0.27
2022-12-06T22:40:02.220Z,0.27
2022-12-06T22:42:31.610Z,0.36
2022-12-06T22:44:57.965Z,0.43
2022-12-06T22:47:24.293Z,0.46
2022-12-06T22:49:50.573Z,0.42
2022-12-06T22:52:16.862Z,0.39
2022-12-06T22:54:43.154Z,0.36
2022-12-06T22:57:09.457Z,0.40
2022-12-06T22:59:35.778Z,0.36
2022-12-06T23:02:02.206Z,0.41
2022-12-06T23:04:28.588Z,0.41
2022-12-06T23:06:54.892Z,0.42
2022-12-06T23:09:21.263Z,0.46
2022-12-06T23:11:47.618Z,0.48
2022-12-06T23:14:13.972Z,0.49
2022-12-06T23:16:43.351Z,0.49
2022-12-06T23:19:10.316Z,0.51
2022-12-06T23:21:37.447Z,0.61
2022-12-06T23:24:07.558Z,0.66
2022-12-06T23:26:36.142Z,0.68
2022-12-06T23:29:03.147Z,0.74
2022-12-06T23:31:32.029Z,1.00
2022-12-06T23:34:02.588Z,1.00
2022-12-06T23:36:31.688Z,1.04
2022-12-06T23:38:58.345Z,1.07
2022-12-06T23:41:27.205Z,1.10
2022-12-06T23:43:54.588Z,1.15
2022-12-06T23:46:32.589Z,1.22
2022-12-06T23:48:59.353Z,1.25
2022-12-06T23:51:30.708Z,1.32
2022-12-06T23:53:58.824Z,1.38
2022-12-06T23:56:27.862Z,1.42
2022-12-06T23:58:54.391Z,1.47
